sensor_id;sensor_type;location;lat;lon;timestamp;pressure;altitude;pressure_sealevel;temperature;humidity
50103;BME280;35993;52.604;10.078;2024-01-15T00:01:47;99205.97;;;1.37;100.00
50103;BME280;35993;52.604;10.078;2024-01-15T00:04:12;99208.06;;;1.20;100.00
50103;BME280;35993;52.604;10.078;2024-01-15T00:06:38;99201.34;;;1.24;100.00
50103;BME280;35993;52.604;10.078;2024-01-15T00:09:03;99197.66;;;1.25;100.00
50103;BME280;35993;52.604;10.078;2024-01-15T00:11:29;99200.94;;;1.27;100.00
50103;BME280;35993;52.604;10.078;2024-01-15T00:13:54;99194.78;;;1.27;100.00
50103;BME280;35993;52.604;10.078;2024-01-15T00:16:20;99178.94;;;1.25;100.00
50103;BME280;35993;52.604;10.078;2024-01-15T00:18:45;99189.81;;;1.24;100.00
50103;BME280;35993;52.604;10.078;2024-01-15T00:21:11;99183.09;;;1.28;100.00
50103;BME280;35993;52.604;10.078;2024-01-15T00:23:36;99159.09;;;1.13;100.00
50103;BME280;35993;52.604;10.078;2024-01-15T00:26:02;99179.88;;;1.18;100.00
50103;BME280;35993;52.604;10.078;2024-01-15T00:28:27;99163.28;;;1.22;100.00
50103;BME280;35993;52.604;10.078;2024-01-15T00:30:53;99171.47;;;1.14;100.00
50103;BME280;35993;52.604;10.078;2024-01-15T00:33:18;99153.47;;;1.29;100.00
50103;BME280;35993;52.604;10.078;2024-01-15T00:35:44;99147.03;;;1.24;100.00
50103;BME280;35993;52.604;10.078;2024-01-15T00:38:10;99140.22;;;1.21;100.00
50103;BME280;35993;52.604;10.078;2024-01-15T00:40:35;99144.84;;;1.06;100.00
50103;BME280;35993;52.604;10.078;2024-01-15T00:43:01;99142.88;;;1.14;100.00
50103;BME280;35993;52.604;10.078;2024-01-15T00:45:27;99147.09;;;1.30;100.00
50103;BME280;35993;52.604;10.078;2024-01-15T00:47:53;99141.09;;;1.22;100.00
50103;BME280;35993;52.604;10.078;2024-01-15T00:50:18;99144.75;;;1.21;100.00
50103;BME280;35993;52.604;10.078;2024-01-15T00:52:44;99163.06;;;1.24;100.00
50103;BME280;35993;52.604;10.078;2024-01-15T00:55:09;99168.91;;;1.34;100.00
50103;BME280;35993;52.604;10.078;2024-01-15T00:57:35;99148.50;;;0.98;100.00
50103;BME280;35993;52.604;10.078;2024-01-15T01:00:01;99127.84;;;1.13;100.00
50103;BME280;35993;52.604;10.078;2024-01-15T01:02:27;99119.63;;;1.15;100.00
50103;BME280;35993;52.604;10.078;2024-01-15T01:04:52;99117.88;;;1.29;100.00
50103;BME280;35993;52.604;10.078;2024-01-15T01:07:18;99132.28;;;1.28;100.00
50103;BME280;35993;52.604;10.078;2024-01-15T01:09:44;99119.16;;;1.33;100.00
50103;BME280;35993;52.604;10.078;2024-01-15T01:12:10;99128.88;;;1.41;100.00
50103;BME280;35993;52.604;10.078;2024-01-15T01:14:37;99121.81;;;1.33;100.00
50103;BME280;35993;52.604;10.078;2024-01-15T01:17:02;99119.56;;;1.37;100.00
50103;BME280;35993;52.604;10.078;2024-01-15T01:19:28;99126.50;;;1.24;100.00
50103;BME280;35993;52.604;10.078;2024-01-15T01:21:53;99121.31;;;1.23;100.00
50103;BME280;35993;52.604;10.078;2024-01-15T01:24:19;99125.72;;;1.30;100.00
50103;BME280;35993;52.604;10.078;2024-01-15T01:26:44;99113.00;;;1.39;100.00
50103;BME280;35993;52.604;10.078;2024-01-15T01:29:12;99111.28;;;1.25;100.00
50103;BME280;35993;52.604;10.078;2024-01-15T01:31:42;99100.97;;;1.22;100.00
50103;BME280;35993;52.604;10.078;2024-01-15T01:34:08;99091.78;;;1.31;100.00
50103;BME280;35993;52.604;10.078;2024-01-15T01:36:33;99094.59;;;1.23;100.00
50103;BME280;35993;52.604;10.078;2024-01-15T01:38:59;99083.03;;;1.16;100.00
50103;BME280;35993;52.604;10.078;2024-01-15T01:41:24;99094.34;;;1.18;100.00
50103;BME280;35993;52.604;10.078;2024-01-15T01:43:50;99102.06;;;1.34;100.00
50103;BME280;35993;52.604;10.078;2024-01-15T01:46:16;99086.25;;;1.39;100.00
50103;BME280;35993;52.604;10.078;2024-01-15T01:48:41;99101.25;;;1.34;100.00
50103;BME280;35993;52.604;10.078;2024-01-15T01:51:07;99089.34;;;1.36;100.00
50103;BME280;35993;52.604;10.078;2024-01-15T01:53:34;99086.88;;;1.35;100.00
50103;BME280;35993;52.604;10.078;2024-01-15T01:56:01;99126.97;;;1.35;100.00
50103;BME280;35993;52.604;10.078;2024-01-15T01:58:28;99105.56;;;1.28;100.00
50103;BME280;35993;52.604;10.078;2024-01-15T02:00:54;99093.06;;;1.07;100.00
50103;BME280;35993;52.604;10.078;2024-01-15T02:03:20;99092.81;;;1.37;100.00
50103;BME280;35993;52.604;10.078;2024-01-15T02:05:47;99084.94;;;1.22;100.00
50103;BME280;35993;52.604;10.078;2024-01-15T02:08:14;99080.50;;;1.07;100.00
50103;BME280;35993;52.604;10.078;2024-01-15T02:10:39;99083.34;;;1.34;100.00
50103;BME280;35993;52.604;10.078;2024-01-15T02:13:05;99070.03;;;1.41;100.00
50103;BME280;35993;52.604;10.078;2024-01-15T02:15:31;99069.81;;;1.36;100.00
50103;BME280;35993;52.604;10.078;2024-01-15T02:18:01;99065.50;;;1.41;100.00
50103;BME280;35993;52.604;10.078;2024-01-15T02:20:27;99067.38;;;1.41;100.00
50103;BME280;35993;52.604;10.078;2024-01-15T02:22:53;99063.66;;;1.42;100.00
50103;BME280;35993;52.604;10.078;2024-01-15T02:25:19;99057.84;;;1.31;100.00
50103;BME280;35993;52.604;10.078;2024-01-15T02:27:45;99057.47;;;1.35;100.00
50103;BME280;35993;52.604;10.078;2024-01-15T02:30:12;99056.44;;;1.36;100.00
50103;BME280;35993;52.604;10.078;2024-01-15T02:32:38;99045.00;;;1.55;100.00
50103;BME280;35993;52.604;10.078;2024-01-15T02:35:04;99056.84;;;1.39;100.00
50103;BME280;35993;52.604;10.078;2024-01-15T02:37:30;99057.13;;;1.51;100.00
50103;BME280;35993;52.604;10.078;2024-01-15T02:39:55;99051.16;;;1.56;100.00
50103;BME280;35993;52.604;10.078;2024-01-15T02:42:21;99051.78;;;1.51;100.00
50103;BME280;35993;52.604;10.078;2024-01-15T02:44:46;99045.34;;;1.39;100.00
50103;BME280;35993;52.604;10.078;2024-01-15T02:47:14;99056.91;;;1.46;100.00
50103;BME280;35993;52.604;10.078;2024-01-15T02:49:39;99047.44;;;1.43;100.00
50103;BME280;35993;52.604;10.078;2024-01-15T02:52:05;99055.97;;;1.25;100.00
50103;BME280;35993;52.604;10.078;2024-01-15T02:54:31;99056.16;;;1.24;100.00
50103;BME280;35993;52.604;10.078;2024-01-15T02:56:56;99041.31;;;1.14;100.00
50103;BME280;35993;52.604;10.078;2024-01-15T02:59:22;99049.34;;;1.21;100.00
50103;BME280;35993;52.604;10.078;2024-01-15T03:01:47;99059.25;;;1.27;100.00
50103;BME280;35993;52.604;10.078;2024-01-15T03:04:13;99066.41;;;1.20;100.00
50103;BME280;35993;52.604;10.078;2024-01-15T03:06:38;99062.59;;;1.36;100.00
50103;BME280;35993;52.604;10.078;2024-01-15T03:09:04;99054.56;;;1.29;100.00
50103;BME280;35993;52.604;10.078;2024-01-15T03:11:29;99054.69;;;1.21;100.00
50103;BME280;35993;52.604;10.078;2024-01-15T03:13:54;99062.41;;;1.38;100.00
50103;BME280;35993;52.604;10.078;2024-01-15T03:16:20;99067.94;;;1.36;100.00
50103;BME280;35993;52.604;10.078;2024-01-15T03:18:46;99069.91;;;1.21;100.00
50103;BME280;35993;52.604;10.078;2024-01-15T03:21:11;99060.88;;;1.22;100.00
50103;BME280;35993;52.604;10.078;2024-01-15T03:23:37;99061.94;;;1.27;100.00
50103;BME280;35993;52.604;10.078;2024-01-15T03:26:02;99068.03;;;1.14;100.00
50103;BME280;35993;52.604;10.078;2024-01-15T03:28:30;99061.91;;;1.21;100.00
50103;BME280;35993;52.604;10.078;2024-01-15T03:30:55;99067.13;;;1.36;100.00
50103;BME280;35993;52.604;10.078;2024-01-15T03:33:21;99067.50;;;1.33;100.00
50103;BME280;35993;52.604;10.078;2024-01-15T03:35:46;99060.38;;;1.40;100.00
50103;BME280;35993;52.604;10.078;2024-01-15T03:38:12;99059.53;;;1.39;100.00
50103;BME280;35993;52.604;10.078;2024-01-15T03:40:38;99051.56;;;1.46;100.00
50103;BME280;35993;52.604;10.078;2024-01-15T03:43:03;99063.69;;;1.49;100.00
50103;BME280;35993;52.604;10.078;2024-01-15T03:45:29;99043.78;;;1.58;100.00
50103;BME280;35993;52.604;10.078;2024-01-15T03:47:54;99045.97;;;1.41;100.00
50103;BME280;35993;52.604;10.078;2024-01-15T03:50:20;99042.31;;;1.49;100.00
50103;BME280;35993;52.604;10.078;2024-01-15T03:52:45;99048.41;;;1.36;100.00
50103;BME280;35993;52.604;10.078;2024-01-15T03:55:11;99052.03;;;1.21;100.00
50103;BME280;35993;52.604;10.078;2024-01-15T03:57:36;99061.16;;;1.34;100.00
50103;BME280;35993;52.604;10.078;2024-01-15T04:00:02;99058.25;;;1.28;100.00
50103;BME280;35993;52.604;10.078;2024-01-15T04:02:30;99069.72;;;1.22;100.00
50103;BME280;35993;52.604;10.078;2024-01-15T04:04:56;99067.44;;;1.19;100.00
50103;BME280;35993;52.604;10.078;2024-01-15T04:07:21;99073.81;;;1.18;100.00
50103;BME280;35993;52.604;10.078;2024-01-15T04:09:47;99056.47;;;1.07;100.00
50103;BME280;35993;52.604;10.078;2024-01-15T04:12:12;99067.00;;;1.16;100.00
50103;BME280;35993;52.604;10.078;2024-01-15T04:14:38;99066.59;;;1.19;100.00
50103;BME280;35993;52.604;10.078;2024-01-15T04:17:03;99061.34;;;1.32;100.00
50103;BME280;35993;52.604;10.078;2024-01-15T04:19:29;99061.56;;;1.30;100.00
50103;BME280;35993;52.604;10.078;2024-01-15T04:21:54;99069.56;;;1.30;100.00
50103;BME280;35993;52.604;10.078;2024-01-15T04:24:20;99063.19;;;1.31;100.00
50103;BME280;35993;52.604;10.078;2024-01-15T04:26:45;99064.06;;;1.39;100.00
50103;BME280;35993;52.604;10.078;2024-01-15T04:29:11;99052.38;;;1.53;100.00
50103;BME280;35993;52.604;10.078;2024-01-15T04:31:37;99058.75;;;1.52;100.00
50103;BME280;35993;52.604;10.078;2024-01-15T04:34:03;99065.41;;;1.63;100.00
50103;BME280;35993;52.604;10.078;2024-01-15T04:36:28;99065.38;;;1.56;100.00
50103;BME280;35993;52.604;10.078;2024-01-15T04:38:54;99046.44;;;1.51;100.00
50103;BME280;35993;52.604;10.078;2024-01-15T04:41:19;99073.41;;;1.56;100.00
50103;BME280;35993;52.604;10.078;2024-01-15T04:43:45;99062.41;;;1.44;100.00
50103;BME280;35993;52.604;10.078;2024-01-15T04:46:10;99061.25;;;1.54;100.00
50103;BME280;35993;52.604;10.078;2024-01-15T04:48:36;99067.66;;;1.59;100.00
50103;BME280;35993;52.604;10.078;2024-01-15T04:51:04;99051.81;;;1.58;100.00
50103;BME280;35993;52.604;10.078;2024-01-15T04:53:30;99062.28;;;1.59;100.00
50103;BME280;35993;52.604;10.078;2024-01-15T04:55:56;99061.91;;;1.62;100.00
50103;BME280;35993;52.604;10.078;2024-01-15T04:58:21;99056.50;;;1.49;100.00
50103;BME280;35993;52.604;10.078;2024-01-15T05:00:50;99069.59;;;1.37;100.00
50103;BME280;35993;52.604;10.078;2024-01-15T05:03:15;99077.84;;;1.42;100.00
50103;BME280;35993;52.604;10.078;2024-01-15T05:05:41;99061.41;;;1.45;100.00
50103;BME280;35993;52.604;10.078;2024-01-15T05:08:06;99070.72;;;1.56;100.00
50103;BME280;35993;52.604;10.078;2024-01-15T05:10:32;99077.31;;;1.54;100.00
50103;BME280;35993;52.604;10.078;2024-01-15T05:12:57;99065.50;;;1.41;100.00
50103;BME280;35993;52.604;10.078;2024-01-15T05:15:23;99067.97;;;1.43;100.00
50103;BME280;35993;52.604;10.078;2024-01-15T05:17:49;99074.16;;;1.43;100.00
50103;BME280;35993;52.604;10.078;2024-01-15T05:20:15;99070.06;;;1.47;100.00
50103;BME280;35993;52.604;10.078;2024-01-15T05:22:41;99069.22;;;1.47;100.00
50103;BME280;35993;52.604;10.078;2024-01-15T05:25:06;99059.72;;;1.38;100.00
50103;BME280;35993;52.604;10.078;2024-01-15T05:27:32;99061.06;;;1.55;100.00
50103;BME280;35993;52.604;10.078;2024-01-15T05:29:57;99057.72;;;1.46;100.00
50103;BME280;35993;52.604;10.078;2024-01-15T05:32:23;99057.53;;;1.55;100.00
50103;BME280;35993;52.604;10.078;2024-01-15T05:34:49;99058.13;;;1.43;100.00
50103;BME280;35993;52.604;10.078;2024-01-15T05:37:14;99062.84;;;1.41;100.00
50103;BME280;35993;52.604;10.078;2024-01-15T05:39:40;99069.88;;;1.49;100.00
50103;BME280;35993;52.604;10.078;2024-01-15T05:42:05;99066.19;;;1.57;100.00
50103;BME280;35993;52.604;10.078;2024-01-15T05:44:31;99062.59;;;1.36;100.00
50103;BME280;35993;52.604;10.078;2024-01-15T05:46:56;99064.50;;;1.42;100.00
50103;BME280;35993;52.604;10.078;2024-01-15T05:49:22;99051.97;;;1.50;100.00
50103;BME280;35993;52.604;10.078;2024-01-15T05:51:47;99052.56;;;1.45;100.00
50103;BME280;35993;52.604;10.078;2024-01-15T05:54:13;99047.44;;;1.43;100.00
50103;BME280;35993;52.604;10.078;2024-01-15T05:56:38;99047.59;;;1.42;100.00
50103;BME280;35993;52.604;10.078;2024-01-15T05:59:04;99036.28;;;1.33;100.00
50103;BME280;35993;52.604;10.078;2024-01-15T06:01:29;99045.34;;;1.39;100.00
50103;BME280;35993;52.604;10.078;2024-01-15T06:03:55;99045.56;;;1.44;100.00
50103;BME280;35993;52.604;10.078;2024-01-15T06:06:20;99054.38;;;1.38;100.00
50103;BME280;35993;52.604;10.078;2024-01-15T06:08:46;99051.13;;;1.42;100.00
50103;BME280;35993;52.604;10.078;2024-01-15T06:11:11;99062.06;;;1.54;100.00
50103;BME280;35993;52.604;10.078;2024-01-15T06:13:37;99070.81;;;1.35;100.00
50103;BME280;35993;52.604;10.078;2024-01-15T06:16:03;99067.94;;;1.36;100.00
50103;BME280;35993;52.604;10.078;2024-01-15T06:18:36;99052.22;;;1.20;100.00
50103;BME280;35993;52.604;10.078;2024-01-15T06:21:02;99055.53;;;1.22;100.00
50103;BME280;35993;52.604;10.078;2024-01-15T06:23:27;99056.59;;;1.27;100.00
50103;BME280;35993;52.604;10.078;2024-01-15T06:25:53;99060.34;;;1.33;100.00
50103;BME280;35993;52.604;10.078;2024-01-15T06:28:18;99059.03;;;1.22;100.00
50103;BME280;35993;52.604;10.078;2024-01-15T06:30:44;99066.94;;;1.37;100.00
50103;BME280;35993;52.604;10.078;2024-01-15T06:33:10;99056.38;;;1.29;100.00
50103;BME280;35993;52.604;10.078;2024-01-15T06:35:35;99062.38;;;1.31;100.00
50103;BME280;35993;52.604;10.078;2024-01-15T06:38:01;99065.94;;;1.10;100.00
50103;BME280;35993;52.604;10.078;2024-01-15T06:40:26;99058.00;;;1.23;100.00
50103;BME280;35993;52.604;10.078;2024-01-15T06:42:52;99060.34;;;1.33;100.00
50103;BME280;35993;52.604;10.078;2024-01-15T06:45:17;99072.03;;;1.32;100.00
50103;BME280;35993;52.604;10.078;2024-01-15T06:47:43;99066.03;;;1.23;100.00
50103;BME280;35993;52.604;10.078;2024-01-15T06:50:08;99073.03;;;1.24;100.00
50103;BME280;35993;52.604;10.078;2024-01-15T06:52:34;99069.75;;;1.29;100.00
50103;BME280;35993;52.604;10.078;2024-01-15T06:54:59;99070.03;;;1.41;100.00
50103;BME280;35993;52.604;10.078;2024-01-15T06:57:26;99061.81;;;1.42;100.00
50103;BME280;35993;52.604;10.078;2024-01-15T06:59:52;99069.56;;;1.30;100.00
50103;BME280;35993;52.604;10.078;2024-01-15T07:02:17;99070.22;;;1.39;100.00
50103;BME280;35993;52.604;10.078;2024-01-15T07:04:42;99068.75;;;1.37;100.00
50103;BME280;35993;52.604;10.078;2024-01-15T07:07:08;99060.78;;;1.43;100.00
50103;BME280;35993;52.604;10.078;2024-01-15T07:09:33;99059.47;;;1.26;100.00
50103;BME280;35993;52.604;10.078;2024-01-15T07:11:59;99063.16;;;1.25;100.00
50103;BME280;35993;52.604;10.078;2024-01-15T07:14:25;99075.88;;;1.23;100.00
50103;BME280;35993;52.604;10.078;2024-01-15T07:16:50;99074.28;;;1.28;100.00
50103;BME280;35993;52.604;10.078;2024-01-15T07:19:16;99078.38;;;1.24;100.00
50103;BME280;35993;52.604;10.078;2024-01-15T07:21:41;99072.41;;;1.29;100.00
50103;BME280;35993;52.604;10.078;2024-01-15T07:24:08;99081.53;;;1.35;100.00
50103;BME280;35993;52.604;10.078;2024-01-15T07:26:34;99075.78;;;1.44;100.00
50103;BME280;35993;52.604;10.078;2024-01-15T07:29:00;99080.75;;;1.41;100.00
50103;BME280;35993;52.604;10.078;2024-01-15T07:31:26;99081.75;;;1.40;100.00
50103;BME280;35993;52.604;10.078;2024-01-15T07:33:52;99090.38;;;1.42;100.00
50103;BME280;35993;52.604;10.078;2024-01-15T07:36:18;99091.84;;;1.44;100.00
50103;BME280;35993;52.604;10.078;2024-01-15T07:38:43;99101.13;;;1.49;100.00
50103;BME280;35993;52.604;10.078;2024-01-15T07:41:09;99094.72;;;1.43;100.00
50103;BME280;35993;52.604;10.078;2024-01-15T07:43:34;99091.00;;;1.37;100.00
50103;BME280;35993;52.604;10.078;2024-01-15T07:45:59;99096.94;;;1.39;100.00
50103;BME280;35993;52.604;10.078;2024-01-15T07:48:26;99101.25;;;1.34;100.00
50103;BME280;35993;52.604;10.078;2024-01-15T07:50:52;99093.75;;;1.16;100.00
50103;BME280;35993;52.604;10.078;2024-01-15T07:53:17;99091.53;;;1.26;100.00
50103;BME280;35993;52.604;10.078;2024-01-15T07:55:43;99104.50;;;1.29;100.00
50103;BME280;35993;52.604;10.078;2024-01-15T07:58:11;99092.66;;;1.38;100.00
50103;BME280;35993;52.604;10.078;2024-01-15T08:00:37;99087.34;;;1.45;100.00
50103;BME280;35993;52.604;10.078;2024-01-15T08:03:02;99092.25;;;1.41;100.00
50103;BME280;35993;52.604;10.078;2024-01-15T08:05:28;99096.94;;;1.39;100.00
50103;BME280;35993;52.604;10.078;2024-01-15T08:07:53;99096.78;;;1.41;100.00
50103;BME280;35993;52.604;10.078;2024-01-15T08:10:19;99109.56;;;1.52;100.00
50103;BME280;35993;52.604;10.078;2024-01-15T08:12:44;99111.59;;;1.43;100.00
50103;BME280;35993;52.604;10.078;2024-01-15T08:15:10;99103.16;;;1.40;100.00
50103;BME280;35993;52.604;10.078;2024-01-15T08:17:35;99104.84;;;1.47;100.00
50103;BME280;35993;52.604;10.078;2024-01-15T08:20:01;99112.16;;;1.32;100.00
50103;BME280;35993;52.604;10.078;2024-01-15T08:22:27;99107.19;;;1.29;100.00
50103;BME280;35993;52.604;10.078;2024-01-15T08:24:52;99109.94;;;1.42;100.00
50103;BME280;35993;52.604;10.078;2024-01-15T08:27:18;99132.59;;;1.46;100.00
50103;BME280;35993;52.604;10.078;2024-01-15T08:29:45;99118.78;;;1.43;100.00
50103;BME280;35993;52.604;10.078;2024-01-15T08:32:10;99120.88;;;1.47;100.00
50103;BME280;35993;52.604;10.078;2024-01-15T08:34:39;99118.34;;;1.39;100.00
50103;BME280;35993;52.604;10.078;2024-01-15T08:37:05;99121.28;;;1.16;100.00
50103;BME280;35993;52.604;10.078;2024-01-15T08:39:30;99121.94;;;0.90;100.00
50103;BME280;35993;52.604;10.078;2024-01-15T08:41:56;99126.19;;;0.62;100.00
50103;BME280;35993;52.604;10.078;2024-01-15T08:44:21;99117.81;;;0.65;100.00
50103;BME280;35993;52.604;10.078;2024-01-15T08:46:47;99124.47;;;0.76;100.00
50103;BME280;35993;52.604;10.078;2024-01-15T08:49:12;99119.41;;;0.88;100.00
50103;BME280;35993;52.604;10.078;2024-01-15T08:51:38;99118.41;;;0.89;100.00
50103;BME280;35993;52.604;10.078;2024-01-15T08:54:04;99121.53;;;0.93;100.00
50103;BME280;35993;52.604;10.078;2024-01-15T08:56:30;99125.69;;;1.02;100.00
50103;BME280;35993;52.604;10.078;2024-01-15T08:58:55;99113.63;;;1.06;100.00
50103;BME280;35993;52.604;10.078;2024-01-15T09:01:21;99122.84;;;1.04;100.00
50103;BME280;35993;52.604;10.078;2024-01-15T09:03:46;99122.91;;;1.10;100.00
50103;BME280;35993;52.604;10.078;2024-01-15T09:06:13;99127.16;;;1.05;100.00
50103;BME280;35993;52.604;10.078;2024-01-15T09:08:39;99135.28;;;0.90;100.00
50103;BME280;35993;52.604;10.078;2024-01-15T09:11:05;99134.16;;;1.06;100.00
50103;BME280;35993;52.604;10.078;2024-01-15T09:13:30;99137.84;;;1.05;100.00
50103;BME280;35993;52.604;10.078;2024-01-15T09:15:57;99141.25;;;0.92;100.00
50103;BME280;35993;52.604;10.078;2024-01-15T09:18:24;99143.78;;;1.00;100.00
50103;BME280;35993;52.604;10.078;2024-01-15T09:20:50;99144.31;;;0.89;100.00
50103;BME280;35993;52.604;10.078;2024-01-15T09:23:16;99145.56;;;0.93;100.00
50103;BME280;35993;52.604;10.078;2024-01-15T09:25:41;99147.03;;;0.95;100.00
50103;BME280;35993;52.604;10.078;2024-01-15T09:28:07;99152.34;;;0.89;100.00
50103;BME280;35993;52.604;10.078;2024-01-15T09:30:33;99136.75;;;0.92;100.00
50103;BME280;35993;52.604;10.078;2024-01-15T09:32:59;99137.34;;;0.94;100.00
50103;BME280;35993;52.604;10.078;2024-01-15T09:35:24;99144.84;;;1.06;100.00
50103;BME280;35993;52.604;10.078;2024-01-15T09:37:50;99152.31;;;1.10;100.00
50103;BME280;35993;52.604;10.078;2024-01-15T09:40:15;99142.06;;;1.14;100.00
50103;BME280;35993;52.604;10.078;2024-01-15T09:42:43;99137.19;;;1.24;100.00
50103;BME280;35993;52.604;10.078;2024-01-15T09:45:09;99153.22;;;1.24;100.00
50103;BME280;35993;52.604;10.078;2024-01-15T09:47:36;99152.81;;;1.27;100.00
50103;BME280;35993;52.604;10.078;2024-01-15T09:50:03;99149.63;;;1.39;100.00
50103;BME280;35993;52.604;10.078;2024-01-15T09:52:30;99147.75;;;1.39;100.00
50103;BME280;35993;52.604;10.078;2024-01-15T09:54:58;99149.59;;;1.32;100.00
50103;BME280;35993;52.604;10.078;2024-01-15T09:57:24;99159.75;;;1.43;100.00
50103;BME280;35993;52.604;10.078;2024-01-15T09:59:51;99155.53;;;1.34;100.00
50103;BME280;35993;52.604;10.078;2024-01-15T10:02:17;99153.22;;;1.53;100.00
50103;BME280;35993;52.604;10.078;2024-01-15T10:04:44;99154.00;;;1.46;100.00
50103;BME280;35993;52.604;10.078;2024-01-15T10:07:15;99156.31;;;1.56;100.00
50103;BME280;35993;52.604;10.078;2024-01-15T10:09:41;99151.78;;;1.57;100.00
50103;BME280;35993;52.604;10.078;2024-01-15T10:12:08;99162.28;;;1.58;100.00
50103;BME280;35993;52.604;10.078;2024-01-15T10:14:34;99150.53;;;1.53;100.00
50103;BME280;35993;52.604;10.078;2024-01-15T10:17:00;99157.13;;;1.57;100.00
50103;BME280;35993;52.604;10.078;2024-01-15T10:19:25;99157.53;;;1.54;100.00
50103;BME280;35993;52.604;10.078;2024-01-15T10:21:51;99156.69;;;1.53;100.00
50103;BME280;35993;52.604;10.078;2024-01-15T10:24:16;99165.03;;;1.72;100.00
50103;BME280;35993;52.604;10.078;2024-01-15T10:26:42;99165.81;;;1.59;100.00
50103;BME280;35993;52.604;10.078;2024-01-15T10:29:08;99170.16;;;1.67;100.00
50103;BME280;35993;52.604;10.078;2024-01-15T10:31:33;99166.63;;;1.59;100.00
50103;BME280;35993;52.604;10.078;2024-01-15T10:34:19;99160.31;;;1.74;100.00
50103;BME280;35993;52.604;10.078;2024-01-15T10:36:45;99152.47;;;1.66;100.00
50103;BME280;35993;52.604;10.078;2024-01-15T10:39:13;99153.72;;;1.70;100.00
50103;BME280;35993;52.604;10.078;2024-01-15T10:41:39;99143.78;;;1.63;100.00
50103;BME280;35993;52.604;10.078;2024-01-15T10:44:05;99148.72;;;1.60;100.00
50103;BME280;35993;52.604;10.078;2024-01-15T10:46:31;99143.13;;;1.55;100.00
50103;BME280;35993;52.604;10.078;2024-01-15T10:48:57;99147.28;;;1.57;100.00
50103;BME280;35993;52.604;10.078;2024-01-15T10:51:23;99141.53;;;1.60;100.00
50103;BME280;35993;52.604;10.078;2024-01-15T10:53:52;99146.13;;;1.73;100.00
50103;BME280;35993;52.604;10.078;2024-01-15T10:56:19;99143.66;;;1.72;100.00
50103;BME280;35993;52.604;10.078;2024-01-15T10:58:47;99136.69;;;1.84;100.00
50103;BME280;35993;52.604;10.078;2024-01-15T11:01:13;99144.69;;;1.77;100.00
50103;BME280;35993;52.604;10.078;2024-01-15T11:03:39;99133.38;;;1.75;100.00
50103;BME280;35993;52.604;10.078;2024-01-15T11:06:16;99135.72;;;1.92;100.00
50103;BME280;35993;52.604;10.078;2024-01-15T11:08:43;99135.00;;;1.76;100.00
50103;BME280;35993;52.604;10.078;2024-01-15T11:11:09;99130.47;;;1.70;100.00
50103;BME280;35993;52.604;10.078;2024-01-15T11:16:06;99128.41;;;1.72;100.00
50103;BME280;35993;52.604;10.078;2024-01-15T11:18:39;99137.69;;;1.76;100.00
50103;BME280;35993;52.604;10.078;2024-01-15T11:26:37;99151.66;;;1.72;100.00
50103;BME280;35993;52.604;10.078;2024-01-15T11:29:08;99150.75;;;1.58;100.00
50103;BME280;35993;52.604;10.078;2024-01-15T11:34:07;99149.25;;;1.84;100.00
50103;BME280;35993;52.604;10.078;2024-01-15T11:41:55;99144.34;;;1.94;100.00
50103;BME280;35993;52.604;10.078;2024-01-15T11:44:21;99147.16;;;1.79;100.00
50103;BME280;35993;52.604;10.078;2024-01-15T11:47:01;99144.13;;;1.89;100.00
50103;BME280;35993;52.604;10.078;2024-01-15T11:50:01;99142.28;;;1.89;100.00
50103;BME280;35993;52.604;10.078;2024-01-15T11:52:37;99137.13;;;1.88;100.00
50103;BME280;35993;52.604;10.078;2024-01-15T11:57:57;99136.13;;;1.95;100.00
50103;BME280;35993;52.604;10.078;2024-01-15T12:00:26;99149.34;;;2.04;100.00
50103;BME280;35993;52.604;10.078;2024-01-15T12:02:51;99129.16;;;2.01;100.00
50103;BME280;35993;52.604;10.078;2024-01-15T12:05:19;99138.22;;;2.00;100.00
50103;BME280;35993;52.604;10.078;2024-01-15T12:07:47;99132.84;;;2.00;100.00
50103;BME280;35993;52.604;10.078;2024-01-15T12:10:17;99133.53;;;2.16;100.00
50103;BME280;35993;52.604;10.078;2024-01-15T12:15:32;99118.91;;;2.11;100.00
50103;BME280;35993;52.604;10.078;2024-01-15T12:17:59;99115.59;;;2.09;100.00
50103;BME280;35993;52.604;10.078;2024-01-15T12:20:30;99122.44;;;2.19;100.00
50103;BME280;35993;52.604;10.078;2024-01-15T12:22:55;99120.78;;;2.24;100.00
50103;BME280;35993;52.604;10.078;2024-01-15T12:25:22;99115.44;;;2.31;100.00
50103;BME280;35993;52.604;10.078;2024-01-15T12:27:48;99115.44;;;2.38;100.00
50103;BME280;35993;52.604;10.078;2024-01-15T12:30:14;99123.53;;;2.44;100.00
50103;BME280;35993;52.604;10.078;2024-01-15T12:32:41;99119.97;;;2.31;100.00
50103;BME280;35993;52.604;10.078;2024-01-15T12:35:12;99139.75;;;2.36;100.00
50103;BME280;35993;52.604;10.078;2024-01-15T12:37:39;99131.94;;;2.35;100.00
50103;BME280;35993;52.604;10.078;2024-01-15T12:40:07;99130.03;;;2.15;100.00
50103;BME280;35993;52.604;10.078;2024-01-15T12:42:33;99139.75;;;2.23;100.00
50103;BME280;35993;52.604;10.078;2024-01-15T12:45:00;99141.31;;;2.04;100.00
50103;BME280;35993;52.604;10.078;2024-01-15T12:47:25;99136.56;;;1.99;100.00
50103;BME280;35993;52.604;10.078;2024-01-15T12:49:54;99131.81;;;1.94;100.00
50103;BME280;35993;52.604;10.078;2024-01-15T12:52:20;99132.84;;;2.00;100.00
50103;BME280;35993;52.604;10.078;2024-01-15T12:54:49;99131.19;;;1.99;100.00
50103;BME280;35993;52.604;10.078;2024-01-15T12:57:16;99133.44;;;1.95;100.00
50103;BME280;35993;52.604;10.078;2024-01-15T12:59:43;99140.44;;;1.90;100.00
50103;BME280;35993;52.604;10.078;2024-01-15T13:02:10;99137.75;;;1.90;100.00
50103;BME280;35993;52.604;10.078;2024-01-15T13:04:36;99145.38;;;1.93;100.00
50103;BME280;35993;52.604;10.078;2024-01-15T13:07:01;99139.19;;;1.86;100.00